createdAt,value
2023-05-25T00:01:59.411Z,70.55
2023-05-25T00:04:04.076Z,70.86
2023-05-25T00:06:08.089Z,71.32
2023-05-25T00:08:10.791Z,71.97
2023-05-25T00:10:13.826Z,72.02
2023-05-25T00:12:16.672Z,72.86
2023-05-25T00:14:19.526Z,72.36
2023-05-25T00:16:23.525Z,72.86
2023-05-25T00:18:27.191Z,73.05
2023-05-25T00:20:30.003Z,72.33
2023-05-25T00:22:34.297Z,73.16
2023-05-25T00:24:37.346Z,73.69
2023-05-25T00:26:40.041Z,73.79
2023-05-25T00:28:42.754Z,73.60
2023-05-25T00:30:45.535Z,73.85
2023-05-25T00:32:49.688Z,74.15
2023-05-25T00:34:52.332Z,74.05
2023-05-25T00:36:55.197Z,74.51
2023-05-25T00:38:57.886Z,73.37
2023-05-25T00:41:00.609Z,74.03
2023-05-25T00:43:03.691Z,74.01
2023-05-25T00:45:07.511Z,74.66
2023-05-25T00:47:10.243Z,73.86
2023-05-25T00:49:16.088Z,73.90
2023-05-25T00:51:18.890Z,74.08
2023-05-25T00:53:22.335Z,73.93
2023-05-25T00:55:26.402Z,74.31
2023-05-25T00:57:33.976Z,74.10
2023-05-25T00:59:41.309Z,74.32
2023-05-25T01:01:46.952Z,73.69
2023-05-25T01:03:53.783Z,74.44
2023-05-25T01:06:00.758Z,74.19
2023-05-25T01:08:06.069Z,74.26
2023-05-25T01:10:11.218Z,74.54
2023-05-25T01:12:16.144Z,74.80
2023-05-25T01:14:21.445Z,75.25
2023-05-25T01:16:25.985Z,75.55
2023-05-25T01:18:28.809Z,75.44
2023-05-25T01:20:31.582Z,76.00
2023-05-25T01:22:41.080Z,76.13
2023-05-25T01:24:47.359Z,76.22
2023-05-25T01:26:58.776Z,76.45
2023-05-25T01:29:04.139Z,76.68
2023-05-25T01:31:08.277Z,76.69
2023-05-25T01:33:11.859Z,76.86
2023-05-25T01:35:15.922Z,76.00
2023-05-25T01:37:23.333Z,76.18
2023-05-25T01:39:27.414Z,75.98
2023-05-25T01:41:30.055Z,76.56
2023-05-25T01:43:32.766Z,76.58
2023-05-25T01:45:36.422Z,76.96
2023-05-25T01:47:46.861Z,76.56
2023-05-25T01:50:01.170Z,77.08
2023-05-25T01:52:13.854Z,76.74
2023-05-25T01:54:20.242Z,77.63
2023-05-25T01:56:27.197Z,77.78
2023-05-25T01:58:36.470Z,77.75
2023-05-25T02:00:41.301Z,78.09
2023-05-25T02:02:45.793Z,77.92
2023-05-25T02:04:49.139Z,78.49
2023-05-25T02:06:52.875Z,78.34
2023-05-25T02:08:55.767Z,80.36
2023-05-25T02:10:58.617Z,79.02
2023-05-25T02:13:02.669Z,80.41
2023-05-25T02:15:06.336Z,80.29
2023-05-25T02:17:09.137Z,80.31
2023-05-25T02:19:12.183Z,80.35
2023-05-25T02:21:15.027Z,81.12
2023-05-25T02:23:18.911Z,80.64
2023-05-25T02:25:21.662Z,81.18
2023-05-25T02:27:24.397Z,82.23
2023-05-25T02:29:28.641Z,81.41
2023-05-25T02:31:31.369Z,81.98
2023-05-25T02:33:34.188Z,83.16
2023-05-25T02:35:37.073Z,83.16
2023-05-25T02:37:40.083Z,83.04
2023-05-25T02:39:42.794Z,83.34
2023-05-25T02:41:45.610Z,83.12
2023-05-25T02:43:48.893Z,83.65
2023-05-25T02:45:52.948Z,83.78
2023-05-25T02:47:55.659Z,83.12
2023-05-25T02:49:58.517Z,83.83
2023-05-25T02:52:01.586Z,84.84
2023-05-25T02:54:04.557Z,84.59
2023-05-25T02:56:06.497Z,85.78
2023-05-25T02:58:09.213Z,84.85
2023-05-25T03:00:13.266Z,84.91
2023-05-25T03:02:18.468Z,85.39
2023-05-25T03:04:21.900Z,85.13
2023-05-25T03:06:26.271Z,85.03
2023-05-25T03:08:29.204Z,85.37
2023-05-25T03:10:31.904Z,85.83
2023-05-25T03:12:36.998Z,87.13
2023-05-25T03:14:39.614Z,86.91
2023-05-25T03:16:42.364Z,87.02
2023-05-25T03:18:46.499Z,87.47
2023-05-25T03:20:49.269Z,87.35
2023-05-25T03:22:52.020Z,88.24
2023-05-25T03:24:54.657Z,89.10
2023-05-25T03:26:57.312Z,89.09
2023-05-25T03:29:00.016Z,89.31
2023-05-25T03:31:02.764Z,89.66
2023-05-25T03:33:05.569Z,90.05
2023-05-25T03:35:10.399Z,90.44
2023-05-25T03:37:13.146Z,90.86
2023-05-25T03:39:15.931Z,90.83
2023-05-25T03:41:18.570Z,91.67
2023-05-25T03:43:21.263Z,90.85
2023-05-25T03:45:23.906Z,91.67
2023-05-25T03:47:26.619Z,91.58
2023-05-25T03:49:29.305Z,91.63
2023-05-25T03:51:33.314Z,92.35
2023-05-25T03:53:36.044Z,93.06
2023-05-25T03:55:38.739Z,92.85
2023-05-25T03:57:41.423Z,93.62
2023-05-25T03:59:44.050Z,92.97
2023-05-25T04:01:46.841Z,93.24
2023-05-25T04:03:49.621Z,92.08
2023-05-25T04:05:52.361Z,92.69
2023-05-25T04:07:57.677Z,92.74
2023-05-25T04:10:00.610Z,91.79
2023-05-25T04:12:03.350Z,91.90
2023-05-25T04:14:06.015Z,92.05
2023-05-25T04:16:10.105Z,91.11
2023-05-25T04:18:12.977Z,90.86
2023-05-25T04:20:15.804Z,92.02
2023-05-25T04:22:18.711Z,91.30
2023-05-25T04:24:23.047Z,91.37
2023-05-25T04:26:26.790Z,90.19
2023-05-25T04:28:29.656Z,90.75
2023-05-25T04:30:32.463Z,88.19
2023-05-25T04:32:37.477Z,84.79
2023-05-25T04:34:42.279Z,82.00
2023-05-25T04:36:44.915Z,80.24
2023-05-25T04:38:48.551Z,79.25
2023-05-25T04:40:53.902Z,80.22
2023-05-25T04:42:57.018Z,79.40
2023-05-25T04:45:00.532Z,78.35
2023-05-25T04:47:03.421Z,78.17
2023-05-25T04:49:08.370Z,79.25
2023-05-25T04:51:11.799Z,79.69
2023-05-25T04:53:14.535Z,79.51
2023-05-25T04:55:17.368Z,77.84
2023-05-25T04:57:21.440Z,78.81
2023-05-25T04:59:24.093Z,80.13
2023-05-25T05:01:27.319Z,78.78
2023-05-25T05:03:30.070Z,78.51
2023-05-25T05:05:32.802Z,76.88
2023-05-25T05:07:36.033Z,78.24
2023-05-25T05:09:38.931Z,76.63
2023-05-25T05:11:41.660Z,75.39
2023-05-25T05:13:45.907Z,75.57
2023-05-25T05:15:48.583Z,75.04
2023-05-25T05:17:51.376Z,75.79
2023-05-25T05:19:54.096Z,77.42
2023-05-25T05:21:56.766Z,77.07
2023-05-25T05:23:59.429Z,77.66
2023-05-25T05:26:04.833Z,77.63
2023-05-25T05:28:08.068Z,79.20
2023-05-25T05:30:13.331Z,78.70
2023-05-25T05:32:16.014Z,79.74
2023-05-25T05:34:18.685Z,81.02
2023-05-25T05:36:21.345Z,83.23
2023-05-25T05:38:24.034Z,81.98
2023-05-25T05:40:26.949Z,79.77
2023-05-25T05:42:29.634Z,78.97
2023-05-25T05:44:32.301Z,78.97
2023-05-25T05:46:37.238Z,77.23
2023-05-25T05:48:40.055Z,77.32
2023-05-25T05:50:42.856Z,76.28
2023-05-25T05:52:45.498Z,76.91
2023-05-25T05:54:48.182Z,74.91
2023-05-25T05:56:51.457Z,76.39
2023-05-25T05:58:54.620Z,74.42
2023-05-25T06:00:57.547Z,75.57
2023-05-25T06:03:01.767Z,75.03
2023-05-25T06:05:05.318Z,75.64
2023-05-25T06:07:08.175Z,75.96
2023-05-25T06:09:10.918Z,76.67
2023-05-25T06:11:13.638Z,75.51
2023-05-25T06:13:16.761Z,74.17
2023-05-25T06:15:19.619Z,74.81
2023-05-25T06:17:24.044Z,72.94
2023-05-25T06:19:28.143Z,75.58
2023-05-25T06:21:30.823Z,75.87
2023-05-25T06:23:33.500Z,73.93
2023-05-25T06:25:36.193Z,73.14
2023-05-25T06:27:38.894Z,72.43
2023-05-25T06:29:41.572Z,74.88
2023-05-25T06:31:44.267Z,74.27
2023-05-25T06:33:46.994Z,75.42
2023-05-25T06:35:52.587Z,73.97
2023-05-25T06:37:55.380Z,74.97
2023-05-25T06:39:58.200Z,73.43
2023-05-25T06:42:01.633Z,73.76
2023-05-25T06:44:04.348Z,74.58
2023-05-25T06:46:07.158Z,74.06
2023-05-25T06:48:09.925Z,73.53
2023-05-25T06:50:13.675Z,72.23
2023-05-25T06:52:17.766Z,71.67
2023-05-25T06:54:20.609Z,71.80
2023-05-25T06:56:23.810Z,71.98
2023-05-25T06:58:27.284Z,74.94
2023-05-25T07:00:30.041Z,74.06
2023-05-25T07:02:32.800Z,76.14
2023-05-25T07:04:35.599Z,75.16
2023-05-25T07:06:38.423Z,74.03
2023-05-25T07:08:42.453Z,76.58
2023-05-25T07:10:45.235Z,77.64
2023-05-25T07:12:47.930Z,77.80
2023-05-25T07:14:50.720Z,79.35
2023-05-25T07:16:53.456Z,81.33
2023-05-25T07:18:57.513Z,81.05
2023-05-25T07:21:02.082Z,80.09
2023-05-25T07:23:04.852Z,79.58
2023-05-25T07:25:10.212Z,78.45
2023-05-25T07:27:12.996Z,81.54
2023-05-25T07:29:15.723Z,79.69
2023-05-25T07:31:18.611Z,79.36
2023-05-25T07:33:21.444Z,79.10
2023-05-25T07:35:24.114Z,80.37
2023-05-25T07:37:26.915Z,79.14
2023-05-25T07:39:29.891Z,79.31
2023-05-25T07:41:34.437Z,79.83
2023-05-25T07:43:37.455Z,81.51
2023-05-25T07:45:40.786Z,81.77
2023-05-25T07:47:43.605Z,80.79
2023-05-25T07:49:46.335Z,80.99
2023-05-25T07:51:49.135Z,78.57
2023-05-25T07:53:52.340Z,76.18
2023-05-25T07:55:59.436Z,74.39
2023-05-25T07:58:03.753Z,71.70
2023-05-25T08:00:08.137Z,68.73
2023-05-25T08:02:10.895Z,64.75
2023-05-25T08:04:13.691Z,66.14
2023-05-25T08:06:16.513Z,62.84
2023-05-25T08:08:20.215Z,64.10
2023-05-25T08:10:23.466Z,64.23
2023-05-25T08:12:45.969Z,63.92
2023-05-25T08:14:50.946Z,65.22
2023-05-25T08:16:53.710Z,64.68
2023-05-25T08:18:56.698Z,66.03
2023-05-25T08:20:59.437Z,66.56
2023-05-25T08:23:02.353Z,63.22
2023-05-25T08:25:06.833Z,64.84
2023-05-25T08:27:09.589Z,63.81
2023-05-25T08:29:12.423Z,64.80
2023-05-25T08:31:16.632Z,63.36
2023-05-25T08:33:19.428Z,62.98
2023-05-25T08:35:22.170Z,60.81
2023-05-25T08:37:26.347Z,58.88
2023-05-25T08:39:29.068Z,59.82
2023-05-25T08:41:32.339Z,57.03
2023-05-25T08:43:35.812Z,58.41
2023-05-25T08:47:44.912Z,58.50
2023-05-25T08:49:50.990Z,59.07
2023-05-25T08:51:55.558Z,57.92
2023-05-25T08:54:04.215Z,57.87
2023-05-25T08:56:12.467Z,59.38
2023-05-25T08:58:19.029Z,59.78
2023-05-25T09:00:26.437Z,58.42
2023-05-25T09:02:34.625Z,57.63
2023-05-25T09:04:39.257Z,57.19
2023-05-25T09:06:42.495Z,56.66
2023-05-25T09:08:46.605Z,57.29
2023-05-25T09:10:50.435Z,58.56
2023-05-25T09:12:54.919Z,58.74
2023-05-25T09:14:58.655Z,59.81
2023-05-25T09:17:01.901Z,60.04
2023-05-25T09:19:04.883Z,56.50
2023-05-25T09:21:09.011Z,56.81
2023-05-25T09:23:12.137Z,59.11
2023-05-25T09:25:18.545Z,61.15
2023-05-25T09:27:23.227Z,64.25
2023-05-25T09:29:25.893Z,64.52
2023-05-25T09:31:29.396Z,64.69
2023-05-25T09:33:32.134Z,67.34
2023-05-25T09:35:34.913Z,67.09
2023-05-25T09:37:39.449Z,66.74
2023-05-25T09:39:43.665Z,66.63
2023-05-25T09:41:46.832Z,67.55
2023-05-25T09:45:57.402Z,64.94
2023-05-25T09:48:01.241Z,62.45
2023-05-25T09:50:04.685Z,64.04
2023-05-25T09:52:07.506Z,62.83
2023-05-25T09:54:11.804Z,62.46
2023-05-25T09:56:14.576Z,57.95
2023-05-25T09:58:17.232Z,57.74
2023-05-25T10:00:19.975Z,57.41
2023-05-25T10:02:23.118Z,61.50
2023-05-25T10:04:25.813Z,59.69
2023-05-25T10:06:28.673Z,57.95
2023-05-25T10:08:32.131Z,61.04
2023-05-25T10:10:37.168Z,59.55
2023-05-25T10:12:43.031Z,59.57
2023-05-25T10:14:47.338Z,58.14
2023-05-25T10:16:53.284Z,57.34
2023-05-25T10:19:02.421Z,58.36
2023-05-25T10:21:06.834Z,57.22
2023-05-25T10:23:12.492Z,58.77
2023-05-25T10:25:24.206Z,58.35
2023-05-25T10:27:35.110Z,58.89
2023-05-25T10:29:40.270Z,59.58
2023-05-25T10:31:43.650Z,57.96
2023-05-25T10:33:50.763Z,56.81
2023-05-25T10:36:08.541Z,55.47
2023-05-25T10:38:13.531Z,57.47
2023-05-25T10:40:17.611Z,56.31
2023-05-25T10:42:20.288Z,57.55
2023-05-25T10:44:25.395Z,59.20
2023-05-25T10:46:28.827Z,60.67
2023-05-25T10:48:38.584Z,60.91
2023-05-25T10:50:41.333Z,59.47
2023-05-25T10:52:44.047Z,60.36
2023-05-25T10:54:47.832Z,57.97
2023-05-25T10:57:09.330Z,58.06
2023-05-25T10:59:13.995Z,58.58
2023-05-25T11:01:18.120Z,59.05
2023-05-25T11:03:20.931Z,59.88
2023-05-25T11:05:34.809Z,60.39
2023-05-25T11:07:53.748Z,60.51
2023-05-25T11:09:59.382Z,60.27
2023-05-25T11:12:03.619Z,60.51
2023-05-25T11:14:06.352Z,60.48
2023-05-25T11:16:24.791Z,59.92
2023-05-25T11:18:38.463Z,60.01
2023-05-25T11:20:41.746Z,60.56
2023-05-25T11:22:44.749Z,61.12
2023-05-25T11:24:47.839Z,61.53
2023-05-25T11:26:56.318Z,61.63
2023-05-25T11:29:00.346Z,60.70
2023-05-25T11:31:03.042Z,60.90
2023-05-25T11:33:09.064Z,61.04
2023-05-25T11:35:11.960Z,60.08
2023-05-25T11:37:17.544Z,60.49
2023-05-25T11:39:23.359Z,60.30
2023-05-25T11:41:26.303Z,59.54
2023-05-25T11:43:29.640Z,60.02
2023-05-25T11:45:34.351Z,61.08
2023-05-25T11:47:38.200Z,60.74
2023-05-25T11:49:46.113Z,58.96
2023-05-25T11:51:48.963Z,59.93
2023-05-25T11:53:52.056Z,60.09
2023-05-25T11:56:00.584Z,59.27
2023-05-25T11:58:10.620Z,58.88
2023-05-25T12:00:14.564Z,58.35
2023-05-25T12:02:18.242Z,58.36
2023-05-25T12:04:23.815Z,58.81
2023-05-25T12:06:30.631Z,58.24
2023-05-25T12:08:33.781Z,58.52
2023-05-25T12:10:50.641Z,58.72
2023-05-25T12:12:58.168Z,59.58
2023-05-25T12:15:00.868Z,59.50
2023-05-25T12:17:03.616Z,58.78
2023-05-25T12:19:07.549Z,57.84
2023-05-25T12:21:10.501Z,58.68
2023-05-25T12:23:14.859Z,59.19
2023-05-25T12:25:20.905Z,57.90
2023-05-25T12:27:23.912Z,58.91
2023-05-25T12:29:26.769Z,59.95
2023-05-25T12:31:31.515Z,59.87
2023-05-25T12:33:34.360Z,58.46
2023-05-25T12:35:46.819Z,59.44
2023-05-25T12:37:49.618Z,59.92
2023-05-25T12:39:53.706Z,58.51
2023-05-25T12:41:57.475Z,57.72
2023-05-25T12:44:00.700Z,59.03
2023-05-25T12:46:03.780Z,58.36
2023-05-25T12:48:07.473Z,57.24
2023-05-25T12:50:14.917Z,57.00
2023-05-25T12:52:33.484Z,57.38
2023-05-25T12:54:38.221Z,58.29
2023-05-25T12:56:56.649Z,55.77
2023-05-25T12:59:16.865Z,57.84
2023-05-25T13:01:19.740Z,56.91
2023-05-25T13:03:22.469Z,57.64
2023-05-25T13:05:31.138Z,56.74
2023-05-25T13:07:33.867Z,57.21
2023-05-25T13:09:36.915Z,57.54
2023-05-25T13:11:39.775Z,56.38
2023-05-25T13:13:44.932Z,54.18
2023-05-25T13:15:47.686Z,54.86
2023-05-25T13:17:51.533Z,54.46
2023-05-25T13:19:54.258Z,55.70
2023-05-25T13:21:57.836Z,55.14
2023-05-25T13:24:00.568Z,55.93
2023-05-25T13:26:03.492Z,56.11
2023-05-25T13:28:06.548Z,55.58
2023-05-25T13:30:11.937Z,55.79
2023-05-25T13:32:14.882Z,55.98
2023-05-25T13:34:17.701Z,56.26
2023-05-25T13:36:20.505Z,55.09
2023-05-25T13:38:23.153Z,55.13
2023-05-25T13:40:25.834Z,55.13
2023-05-25T13:42:28.599Z,55.20
2023-05-25T13:44:31.338Z,54.65
2023-05-25T13:46:37.572Z,54.91
2023-05-25T13:48:40.739Z,55.77
2023-05-25T13:50:45.103Z,55.67
2023-05-25T13:52:49.140Z,57.30
2023-05-25T13:54:51.857Z,56.98
2023-05-25T13:56:54.570Z,55.77
2023-05-25T13:58:57.294Z,56.49
2023-05-25T14:01:00.019Z,55.48
2023-05-25T14:03:04.215Z,56.18
2023-05-25T14:05:07.647Z,56.17
2023-05-25T14:07:10.902Z,55.80
2023-05-25T14:09:13.718Z,55.61
2023-05-25T14:11:18.489Z,54.50
2023-05-25T14:13:24.726Z,55.81
2023-05-25T14:15:27.474Z,55.84
2023-05-25T14:17:30.365Z,54.76
2023-05-25T14:19:35.211Z,54.58
2023-05-25T14:21:37.927Z,54.15
2023-05-25T14:23:40.610Z,55.49
2023-05-25T14:25:43.795Z,55.76
2023-05-25T14:27:46.822Z,55.69
2023-05-25T14:29:50.452Z,56.02
2023-05-25T14:31:53.298Z,56.07
2023-05-25T14:33:56.044Z,55.65
2023-05-25T14:36:00.082Z,54.84
2023-05-25T14:38:03.869Z,54.69
2023-05-25T14:40:07.723Z,55.14
2023-05-25T14:42:10.364Z,56.37
2023-05-25T14:44:13.076Z,56.29
2023-05-25T14:46:15.878Z,56.04
2023-05-25T14:48:23.107Z,56.65
2023-05-25T14:50:26.412Z,55.97
2023-05-25T14:52:31.875Z,56.50
2023-05-25T14:54:34.623Z,54.71
2023-05-25T14:56:37.348Z,54.61
2023-05-25T14:58:39.990Z,55.10
2023-05-25T15:00:42.681Z,55.45
2023-05-25T15:02:45.593Z,54.92
2023-05-25T15:04:48.602Z,54.32
2023-05-25T15:06:51.473Z,54.00
2023-05-25T15:08:55.535Z,54.74
2023-05-25T15:10:58.226Z,54.84
2023-05-25T15:13:00.910Z,54.97
2023-05-25T15:15:03.605Z,55.21
2023-05-25T15:17:06.417Z,54.00
2023-05-25T15:19:11.780Z,54.25
2023-05-25T15:21:15.473Z,54.60
2023-05-25T15:23:18.187Z,54.23
2023-05-25T15:25:34.905Z,53.64
2023-05-25T15:27:38.055Z,53.96
2023-05-25T15:29:40.709Z,54.60
2023-05-25T15:31:43.469Z,54.63
2023-05-25T15:33:56.296Z,54.53
2023-05-25T15:36:01.481Z,54.74
2023-05-25T15:38:04.462Z,55.32
2023-05-25T15:40:08.486Z,55.47
2023-05-25T15:42:12.526Z,55.66
2023-05-25T15:44:15.308Z,55.09
2023-05-25T15:46:18.003Z,55.11
2023-05-25T15:48:20.796Z,54.26
2023-05-25T15:50:23.614Z,55.25
2023-05-25T15:52:26.354Z,54.26
2023-05-25T15:54:29.314Z,54.21
2023-05-25T15:56:32.792Z,55.04
2023-05-25T15:58:36.863Z,54.75
2023-05-25T16:00:39.531Z,55.45
2023-05-25T16:02:42.287Z,55.50
2023-05-25T16:04:45.096Z,55.10
2023-05-25T16:06:48.671Z,54.87
2023-05-25T16:08:51.485Z,55.05
2023-05-25T16:10:54.176Z,55.13
2023-05-25T16:12:56.852Z,54.88
2023-05-25T16:15:00.904Z,54.52
2023-05-25T16:17:03.597Z,54.96
2023-05-25T16:19:07.518Z,55.25
2023-05-25T16:21:10.524Z,55.47
2023-05-25T16:23:14.764Z,54.95
2023-05-25T16:25:17.596Z,55.28
2023-05-25T16:27:20.308Z,55.67
2023-05-25T16:29:22.987Z,55.06
2023-05-25T16:31:27.179Z,55.50
2023-05-25T16:33:29.926Z,56.02
2023-05-25T16:35:32.603Z,55.26
2023-05-25T16:37:35.309Z,55.88
2023-05-25T16:39:38.029Z,55.17
2023-05-25T16:41:41.858Z,55.45
2023-05-25T16:43:44.618Z,55.91
2023-05-25T16:45:47.700Z,55.83
2023-05-25T16:47:51.995Z,55.67
2023-05-25T16:49:56.788Z,56.42
2023-05-25T16:51:59.640Z,56.56
2023-05-25T16:54:02.504Z,55.65
2023-05-25T16:56:05.635Z,56.76
2023-05-25T16:58:08.392Z,55.37
2023-05-25T17:00:12.256Z,56.16
2023-05-25T17:02:14.891Z,55.75
2023-05-25T17:04:18.917Z,55.74
2023-05-25T17:06:21.732Z,55.89
2023-05-25T17:08:24.405Z,55.72
2023-05-25T17:10:27.134Z,55.55
2023-05-25T17:12:29.912Z,56.25
2023-05-25T17:14:32.691Z,55.62
2023-05-25T17:16:35.488Z,56.60
2023-05-25T17:18:38.198Z,56.17
2023-05-25T17:20:42.444Z,55.86
2023-05-25T17:22:45.191Z,56.23
2023-05-25T17:24:47.886Z,55.93
2023-05-25T17:26:51.658Z,56.43
2023-05-25T17:28:54.890Z,56.06
2023-05-25T17:30:58.913Z,56.60
2023-05-25T17:33:01.958Z,56.34
2023-05-25T17:35:05.059Z,56.27
2023-05-25T17:37:09.206Z,56.45
2023-05-25T17:39:11.925Z,56.35
2023-05-25T17:41:14.587Z,56.26
2023-05-25T17:43:17.280Z,56.33
2023-05-25T17:45:20.149Z,56.67
2023-05-25T17:47:23.904Z,56.54
2023-05-25T17:49:26.683Z,56.56
2023-05-25T17:51:29.291Z,56.57
2023-05-25T17:53:33.369Z,56.87
2023-05-25T17:55:36.084Z,57.31
2023-05-25T17:57:38.736Z,56.93
2023-05-25T17:59:42.408Z,58.33
2023-05-25T18:01:47.158Z,57.97
2023-05-25T18:03:50.649Z,58.42
2023-05-25T18:05:53.465Z,58.11
2023-05-25T18:07:56.279Z,58.64
2023-05-25T18:10:00.286Z,59.42
2023-05-25T18:12:03.109Z,58.87
2023-05-25T18:14:05.890Z,58.75
2023-05-25T18:16:08.578Z,59.57
2023-05-25T18:18:11.289Z,60.14
2023-05-25T18:20:14.139Z,59.86
2023-05-25T18:22:16.895Z,60.00
2023-05-25T18:24:19.558Z,60.12
2023-05-25T18:26:23.592Z,59.68
2023-05-25T18:28:26.991Z,60.38
2023-05-25T18:30:30.494Z,60.41
2023-05-25T18:32:33.193Z,61.27
2023-05-25T18:34:35.890Z,60.67
2023-05-25T18:36:38.588Z,61.26
2023-05-25T18:38:41.224Z,62.32
2023-05-25T18:40:43.978Z,63.67
2023-05-25T18:42:48.062Z,63.50
2023-05-25T18:44:50.850Z,62.84
2023-05-25T18:46:55.547Z,62.67
2023-05-25T18:48:58.268Z,62.49
2023-05-25T18:51:02.326Z,63.04
2023-05-25T18:53:07.581Z,62.07
2023-05-25T18:55:10.597Z,62.51
2023-05-25T18:57:13.261Z,62.77
2023-05-25T18:59:17.269Z,63.26
2023-05-25T19:01:20.154Z,62.24
2023-05-25T19:03:22.940Z,62.32
2023-05-25T19:05:26.044Z,62.80
2023-05-25T19:07:28.701Z,63.56
2023-05-25T19:09:31.364Z,63.20
2023-05-25T19:11:34.065Z,64.20
2023-05-25T19:13:36.732Z,63.59
2023-05-25T19:15:40.880Z,62.91
2023-05-25T19:17:43.598Z,63.74
2023-05-25T19:19:46.352Z,63.64
2023-05-25T19:21:49.084Z,64.17
2023-05-25T19:23:52.089Z,64.34
2023-05-25T19:25:54.781Z,64.73
2023-05-25T19:27:58.546Z,64.19
2023-05-25T19:30:01.354Z,65.01
2023-05-25T19:32:06.006Z,65.16
2023-05-25T19:34:08.874Z,66.51
2023-05-25T19:36:11.627Z,66.46
2023-05-25T19:38:14.352Z,66.92
2023-05-25T19:40:17.095Z,65.46
2023-05-25T19:42:20.019Z,65.71
2023-05-25T19:44:22.686Z,66.89
2023-05-25T19:46:25.624Z,66.03
2023-05-25T19:48:29.961Z,67.08
2023-05-25T19:50:33.317Z,66.30
2023-05-25T19:52:36.193Z,67.00
2023-05-25T19:54:39.244Z,66.44
2023-05-25T19:56:44.014Z,67.71
2023-05-25T19:58:47.124Z,67.97
2023-05-25T20:00:50.141Z,67.34
2023-05-25T20:02:53.053Z,67.22
2023-05-25T20:04:57.312Z,67.38
2023-05-25T20:07:00.314Z,67.35
2023-05-25T20:09:03.664Z,66.76
2023-05-25T20:11:06.879Z,67.50
2023-05-25T20:13:10.085Z,66.99
2023-05-25T20:15:13.105Z,67.79
2023-05-25T20:17:16.091Z,67.86
2023-05-25T20:19:20.977Z,68.08
2023-05-25T20:21:25.282Z,67.04
2023-05-25T20:23:27.967Z,68.70
2023-05-25T20:25:30.631Z,68.10
2023-05-25T20:27:33.328Z,68.89
2023-05-25T20:29:37.283Z,68.31
2023-05-25T20:31:40.315Z,67.39
2023-05-25T20:33:43.251Z,69.30
2023-05-25T20:35:46.256Z,67.81
2023-05-25T20:37:50.602Z,67.46
2023-05-25T20:39:53.366Z,67.44
2023-05-25T20:41:56.094Z,67.93
2023-05-25T20:43:58.860Z,68.04
2023-05-25T20:46:01.741Z,68.18
2023-05-25T20:48:05.216Z,69.12
2023-05-25T20:50:08.750Z,69.29
2023-05-25T20:52:11.611Z,68.29
2023-05-25T20:54:15.713Z,69.60
2023-05-25T20:56:18.716Z,69.76
2023-05-25T20:58:21.394Z,68.79
2023-05-25T21:00:24.401Z,69.79
2023-05-25T21:02:28.554Z,70.54
2023-05-25T21:04:32.073Z,71.25
2023-05-25T21:06:34.938Z,70.95
2023-05-25T21:08:37.665Z,71.33
2023-05-25T21:10:41.945Z,73.24
2023-05-25T21:12:44.743Z,73.39
2023-05-25T21:14:47.421Z,71.67
2023-05-25T21:16:51.313Z,72.68
2023-05-25T21:18:54.027Z,72.97
2023-05-25T21:20:56.759Z,74.23
2023-05-25T21:22:59.536Z,72.66
2023-05-25T21:25:02.248Z,72.42
2023-05-25T21:27:07.224Z,73.21
2023-05-25T21:29:10.126Z,73.10
2023-05-25T21:31:12.859Z,75.47
2023-05-25T21:33:16.213Z,74.87
2023-05-25T21:35:19.077Z,75.87
2023-05-25T21:37:21.821Z,75.98
2023-05-25T21:39:24.506Z,75.19
2023-05-25T21:41:27.333Z,73.81
2023-05-25T21:43:31.487Z,73.74
2023-05-25T21:45:34.173Z,72.69
2023-05-25T21:47:36.903Z,72.42
2023-05-25T21:49:39.682Z,71.77
2023-05-25T21:51:42.404Z,74.30
2023-05-25T21:53:45.098Z,72.54
2023-05-25T21:55:48.127Z,72.64
2023-05-25T21:57:50.905Z,73.99
2023-05-25T21:59:55.009Z,73.50
2023-05-25T22:01:57.735Z,74.19
2023-05-25T22:04:00.424Z,74.67
2023-05-25T22:06:03.107Z,74.81
2023-05-25T22:08:05.933Z,74.65
2023-05-25T22:10:09.635Z,72.28
2023-05-25T22:12:13.047Z,73.22
2023-05-25T22:14:15.700Z,74.95
2023-05-25T22:16:19.865Z,74.77
2023-05-25T22:18:22.583Z,76.24
2023-05-25T22:20:25.239Z,75.05
2023-05-25T22:22:28.021Z,76.06
2023-05-25T22:24:30.697Z,73.79
2023-05-25T22:26:33.433Z,73.76
2023-05-25T22:28:36.091Z,74.06
2023-05-25T22:30:38.861Z,74.16
2023-05-25T22:32:42.966Z,73.60
2023-05-25T22:34:45.697Z,72.87
2023-05-25T22:36:48.366Z,73.93
2023-05-25T22:38:51.057Z,73.15
2023-05-25T22:40:53.900Z,74.64
2023-05-25T22:42:56.670Z,76.77
2023-05-25T22:44:59.338Z,76.55
2023-05-25T22:47:02.226Z,74.22
2023-05-25T22:49:06.343Z,73.48
2023-05-25T22:51:09.162Z,73.77
2023-05-25T22:53:12.083Z,73.14
2023-05-25T22:55:14.860Z,73.29
2023-05-25T22:57:17.652Z,74.07
2023-05-25T22:59:20.364Z,74.18
2023-05-25T23:01:23.224Z,76.12
2023-05-25T23:03:26.029Z,75.72
2023-05-25T23:05:30.285Z,75.14
2023-05-25T23:07:33.027Z,75.57
2023-05-25T23:09:35.834Z,75.88
2023-05-25T23:11:38.579Z,76.66
2023-05-25T23:13:42.725Z,76.20
2023-05-25T23:15:45.568Z,75.12
2023-05-25T23:17:48.497Z,76.10
2023-05-25T23:19:53.472Z,75.60
2023-05-25T23:21:58.585Z,75.80
2023-05-25T23:24:01.317Z,75.76
2023-05-25T23:26:04.292Z,75.94
2023-05-25T23:28:07.039Z,76.03
2023-05-25T23:30:10.408Z,76.06
2023-05-25T23:32:13.133Z,76.08
2023-05-25T23:34:16.101Z,76.17
2023-05-25T23:36:18.873Z,76.60
2023-05-25T23:38:22.899Z,76.84
2023-05-25T23:40:25.660Z,77.15
2023-05-25T23:42:29.079Z,76.85
2023-05-25T23:44:31.832Z,76.98
2023-05-25T23:46:34.611Z,76.49
2023-05-25T23:48:37.312Z,77.16
2023-05-25T23:50:40.309Z,78.14
2023-05-25T23:52:43.015Z,78.76
2023-05-25T23:54:47.011Z,78.21
2023-05-25T23:56:49.633Z,78.43
2023-05-25T23:58:52.508Z,78.34
